sensor_id;sensor_type;location;lat;lon;timestamp;temperature;humidity
9847;DHT22;68671;50.084;8.794;2023-07-16T00:01:05;25.10;99.90
9847;DHT22;68671;50.084;8.794;2023-07-16T00:03:34;25.10;99.90
9847;DHT22;68671;50.084;8.794;2023-07-16T00:06:00;25.10;99.90
9847;DHT22;68671;50.084;8.794;2023-07-16T00:08:27;25.00;99.90
9847;DHT22;68671;50.084;8.794;2023-07-16T00:10:54;25.00;99.90
9847;DHT22;68671;50.084;8.794;2023-07-16T00:13:21;25.00;99.90
9847;DHT22;68671;50.084;8.794;2023-07-16T00:15:48;25.00;99.90
9847;DHT22;68671;50.084;8.794;2023-07-16T00:18:15;25.00;99.90
9847;DHT22;68671;50.084;8.794;2023-07-16T00:20:43;25.00;99.90
9847;DHT22;68671;50.084;8.794;2023-07-16T00:23:10;24.90;99.90
9847;DHT22;68671;50.084;8.794;2023-07-16T00:25:37;24.90;99.90
9847;DHT22;68671;50.084;8.794;2023-07-16T00:28:04;24.90;99.90
9847;DHT22;68671;50.084;8.794;2023-07-16T00:30:31;24.80;99.90
9847;DHT22;68671;50.084;8.794;2023-07-16T00:32:58;24.80;99.90
9847;DHT22;68671;50.084;8.794;2023-07-16T00:35:25;24.80;99.90
9847;DHT22;68671;50.084;8.794;2023-07-16T00:37:53;24.70;99.90
9847;DHT22;68671;50.084;8.794;2023-07-16T00:40:20;24.70;99.90
9847;DHT22;68671;50.084;8.794;2023-07-16T00:42:47;24.70;99.90
9847;DHT22;68671;50.084;8.794;2023-07-16T00:45:14;24.60;99.90
9847;DHT22;68671;50.084;8.794;2023-07-16T00:47:42;24.60;99.90
9847;DHT22;68671;50.084;8.794;2023-07-16T00:50:10;24.60;99.90
9847;DHT22;68671;50.084;8.794;2023-07-16T00:52:38;24.60;99.90
9847;DHT22;68671;50.084;8.794;2023-07-16T00:55:08;24.60;99.90
9847;DHT22;68671;50.084;8.794;2023-07-16T00:57:35;24.50;99.90
9847;DHT22;68671;50.084;8.794;2023-07-16T01:00:03;24.50;99.90
9847;DHT22;68671;50.084;8.794;2023-07-16T01:02:30;24.40;99.90
9847;DHT22;68671;50.084;8.794;2023-07-16T01:04:58;24.40;99.90
9847;DHT22;68671;50.084;8.794;2023-07-16T01:07:27;24.40;99.90
9847;DHT22;68671;50.084;8.794;2023-07-16T01:09:55;24.40;99.90
9847;DHT22;68671;50.084;8.794;2023-07-16T01:12:25;24.30;99.90
9847;DHT22;68671;50.084;8.794;2023-07-16T01:14:54;24.30;99.90
9847;DHT22;68671;50.084;8.794;2023-07-16T01:17:23;24.30;99.90
9847;DHT22;68671;50.084;8.794;2023-07-16T01:19:49;24.20;99.90
9847;DHT22;68671;50.084;8.794;2023-07-16T01:22:32;24.20;99.90
9847;DHT22;68671;50.084;8.794;2023-07-16T01:25:10;24.20;99.90
9847;DHT22;68671;50.084;8.794;2023-07-16T01:28:04;24.20;99.90
9847;DHT22;68671;50.084;8.794;2023-07-16T01:30:34;24.20;99.90
9847;DHT22;68671;50.084;8.794;2023-07-16T01:33:04;24.10;99.90
9847;DHT22;68671;50.084;8.794;2023-07-16T01:35:31;24.10;99.90
9847;DHT22;68671;50.084;8.794;2023-07-16T01:37:59;24.00;99.90
9847;DHT22;68671;50.084;8.794;2023-07-16T01:40:26;24.00;99.90
9847;DHT22;68671;50.084;8.794;2023-07-16T01:42:53;24.00;99.90
9847;DHT22;68671;50.084;8.794;2023-07-16T01:45:20;24.00;99.90
9847;DHT22;68671;50.084;8.794;2023-07-16T01:47:59;24.00;99.90
9847;DHT22;68671;50.084;8.794;2023-07-16T01:50:26;23.90;99.90
9847;DHT22;68671;50.084;8.794;2023-07-16T01:52:53;23.90;99.90
9847;DHT22;68671;50.084;8.794;2023-07-16T01:55:20;23.90;99.90
9847;DHT22;68671;50.084;8.794;2023-07-16T01:57:47;23.90;99.90
9847;DHT22;68671;50.084;8.794;2023-07-16T02:00:14;23.80;99.90
9847;DHT22;68671;50.084;8.794;2023-07-16T02:02:41;23.80;99.90
9847;DHT22;68671;50.084;8.794;2023-07-16T02:05:10;23.80;99.90
9847;DHT22;68671;50.084;8.794;2023-07-16T02:07:37;23.80;99.90
9847;DHT22;68671;50.084;8.794;2023-07-16T02:10:04;23.80;99.90
9847;DHT22;68671;50.084;8.794;2023-07-16T02:12:31;23.90;99.90
9847;DHT22;68671;50.084;8.794;2023-07-16T02:14:58;23.90;99.90
9847;DHT22;68671;50.084;8.794;2023-07-16T02:17:25;23.90;99.90
9847;DHT22;68671;50.084;8.794;2023-07-16T02:19:52;23.90;99.90
9847;DHT22;68671;50.084;8.794;2023-07-16T02:22:20;24.00;99.90
9847;DHT22;68671;50.084;8.794;2023-07-16T02:24:47;24.00;99.90
9847;DHT22;68671;50.084;8.794;2023-07-16T02:27:14;24.00;99.90
9847;DHT22;68671;50.084;8.794;2023-07-16T02:29:41;24.00;99.90
9847;DHT22;68671;50.084;8.794;2023-07-16T02:32:08;24.00;99.90
9847;DHT22;68671;50.084;8.794;2023-07-16T02:34:35;24.10;99.90
9847;DHT22;68671;50.084;8.794;2023-07-16T02:37:03;24.10;99.90
9847;DHT22;68671;50.084;8.794;2023-07-16T02:39:32;24.10;99.90
9847;DHT22;68671;50.084;8.794;2023-07-16T02:41:59;24.10;99.90
9847;DHT22;68671;50.084;8.794;2023-07-16T02:44:26;24.10;99.90
9847;DHT22;68671;50.084;8.794;2023-07-16T02:46:53;24.10;99.90
9847;DHT22;68671;50.084;8.794;2023-07-16T02:49:20;24.10;99.90
9847;DHT22;68671;50.084;8.794;2023-07-16T02:51:46;24.10;99.90
9847;DHT22;68671;50.084;8.794;2023-07-16T02:54:13;24.00;99.90
9847;DHT22;68671;50.084;8.794;2023-07-16T02:56:42;24.00;99.90
9847;DHT22;68671;50.084;8.794;2023-07-16T02:59:09;24.00;99.90
9847;DHT22;68671;50.084;8.794;2023-07-16T03:01:36;24.00;99.90
9847;DHT22;68671;50.084;8.794;2023-07-16T03:04:03;24.00;99.90
9847;DHT22;68671;50.084;8.794;2023-07-16T03:06:30;24.00;99.90
9847;DHT22;68671;50.084;8.794;2023-07-16T03:08:57;24.00;99.90
9847;DHT22;68671;50.084;8.794;2023-07-16T03:11:24;23.90;99.90
9847;DHT22;68671;50.084;8.794;2023-07-16T03:13:52;23.90;99.90
9847;DHT22;68671;50.084;8.794;2023-07-16T03:16:19;23.90;99.90
9847;DHT22;68671;50.084;8.794;2023-07-16T03:18:46;23.80;99.90
9847;DHT22;68671;50.084;8.794;2023-07-16T03:21:13;23.80;99.90
9847;DHT22;68671;50.084;8.794;2023-07-16T03:23:41;23.80;99.90
9847;DHT22;68671;50.084;8.794;2023-07-16T03:26:08;23.80;99.90
9847;DHT22;68671;50.084;8.794;2023-07-16T03:28:35;23.70;99.90
9847;DHT22;68671;50.084;8.794;2023-07-16T03:31:04;23.70;99.90
9847;DHT22;68671;50.084;8.794;2023-07-16T03:33:31;23.70;99.90
9847;DHT22;68671;50.084;8.794;2023-07-16T03:35:58;23.60;99.90
9847;DHT22;68671;50.084;8.794;2023-07-16T03:38:25;23.60;99.90
9847;DHT22;68671;50.084;8.794;2023-07-16T03:40:52;23.50;99.90
9847;DHT22;68671;50.084;8.794;2023-07-16T03:43:19;23.50;99.90
9847;DHT22;68671;50.084;8.794;2023-07-16T03:45:47;23.50;99.90
9847;DHT22;68671;50.084;8.794;2023-07-16T03:48:15;23.50;99.90
9847;DHT22;68671;50.084;8.794;2023-07-16T03:50:42;23.40;99.90
9847;DHT22;68671;50.084;8.794;2023-07-16T03:53:09;23.50;99.90
9847;DHT22;68671;50.084;8.794;2023-07-16T03:55:36;23.40;99.90
9847;DHT22;68671;50.084;8.794;2023-07-16T03:58:03;23.40;99.90
9847;DHT22;68671;50.084;8.794;2023-07-16T04:00:30;23.40;99.90
9847;DHT22;68671;50.084;8.794;2023-07-16T04:02:57;23.40;99.90
9847;DHT22;68671;50.084;8.794;2023-07-16T04:05:28;23.30;99.90
9847;DHT22;68671;50.084;8.794;2023-07-16T04:07:55;23.30;99.90
9847;DHT22;68671;50.084;8.794;2023-07-16T04:10:22;23.30;99.90
9847;DHT22;68671;50.084;8.794;2023-07-16T04:12:49;23.30;99.90
9847;DHT22;68671;50.084;8.794;2023-07-16T04:15:16;23.40;99.90
9847;DHT22;68671;50.084;8.794;2023-07-16T04:17:43;23.30;99.90
9847;DHT22;68671;50.084;8.794;2023-07-16T04:20:13;23.40;99.90
9847;DHT22;68671;50.084;8.794;2023-07-16T04:22:42;23.40;99.90
9847;DHT22;68671;50.084;8.794;2023-07-16T04:25:09;23.50;99.90
9847;DHT22;68671;50.084;8.794;2023-07-16T04:27:37;23.70;99.90
9847;DHT22;68671;50.084;8.794;2023-07-16T04:30:07;23.90;99.90
9847;DHT22;68671;50.084;8.794;2023-07-16T04:32:34;24.20;99.90
9847;DHT22;68671;50.084;8.794;2023-07-16T04:35:01;24.40;99.90
9847;DHT22;68671;50.084;8.794;2023-07-16T04:37:28;24.70;99.90
9847;DHT22;68671;50.084;8.794;2023-07-16T04:39:57;25.00;99.90
9847;DHT22;68671;50.084;8.794;2023-07-16T04:42:26;25.30;99.90
9847;DHT22;68671;50.084;8.794;2023-07-16T04:44:54;25.60;99.60
9847;DHT22;68671;50.084;8.794;2023-07-16T04:47:21;25.90;98.60
9847;DHT22;68671;50.084;8.794;2023-07-16T04:49:48;26.20;98.10
9847;DHT22;68671;50.084;8.794;2023-07-16T04:52:15;26.50;97.50
9847;DHT22;68671;50.084;8.794;2023-07-16T04:54:42;26.80;95.90
9847;DHT22;68671;50.084;8.794;2023-07-16T04:57:10;27.10;94.30
9847;DHT22;68671;50.084;8.794;2023-07-16T04:59:37;27.40;93.20
9847;DHT22;68671;50.084;8.794;2023-07-16T05:02:05;27.70;92.00
9847;DHT22;68671;50.084;8.794;2023-07-16T05:04:32;28.00;90.80
9847;DHT22;68671;50.084;8.794;2023-07-16T05:07:00;28.20;89.60
9847;DHT22;68671;50.084;8.794;2023-07-16T05:09:28;28.40;87.70
9847;DHT22;68671;50.084;8.794;2023-07-16T05:11:55;28.50;86.20
9847;DHT22;68671;50.084;8.794;2023-07-16T05:14:27;28.80;85.10
9847;DHT22;68671;50.084;8.794;2023-07-16T05:16:54;29.10;84.60
9847;DHT22;68671;50.084;8.794;2023-07-16T05:19:22;29.40;83.30
9847;DHT22;68671;50.084;8.794;2023-07-16T05:21:58;29.60;81.60
9847;DHT22;68671;50.084;8.794;2023-07-16T05:40:52;31.60;71.50
9847;DHT22;68671;50.084;8.794;2023-07-16T05:43:41;32.00;70.30
9847;DHT22;68671;50.084;8.794;2023-07-16T05:46:33;32.20;67.60
9847;DHT22;68671;50.084;8.794;2023-07-16T05:49:04;32.50;66.30
9847;DHT22;68671;50.084;8.794;2023-07-16T05:51:31;32.70;65.10
9847;DHT22;68671;50.084;8.794;2023-07-16T05:53:58;32.80;63.30
9847;DHT22;68671;50.084;8.794;2023-07-16T05:56:25;33.00;62.30
9847;DHT22;68671;50.084;8.794;2023-07-16T05:58:52;33.10;60.20
9847;DHT22;68671;50.084;8.794;2023-07-16T06:01:19;33.20;59.60
9847;DHT22;68671;50.084;8.794;2023-07-16T06:03:46;33.40;58.60
9847;DHT22;68671;50.084;8.794;2023-07-16T06:06:14;33.40;58.10
9847;DHT22;68671;50.084;8.794;2023-07-16T06:08:41;33.50;57.90
9847;DHT22;68671;50.084;8.794;2023-07-16T06:11:08;33.60;57.40
9847;DHT22;68671;50.084;8.794;2023-07-16T06:13:35;33.80;56.60
9847;DHT22;68671;50.084;8.794;2023-07-16T06:16:03;33.90;56.00
9847;DHT22;68671;50.084;8.794;2023-07-16T06:18:30;34.00;55.30
9847;DHT22;68671;50.084;8.794;2023-07-16T06:20:57;34.10;54.80
9847;DHT22;68671;50.084;8.794;2023-07-16T06:23:26;34.10;54.20
9847;DHT22;68671;50.084;8.794;2023-07-16T06:25:54;34.20;53.80
9847;DHT22;68671;50.084;8.794;2023-07-16T06:28:22;34.20;52.90
9847;DHT22;68671;50.084;8.794;2023-07-16T06:30:49;34.00;52.50
9847;DHT22;68671;50.084;8.794;2023-07-16T06:33:17;34.00;52.30
9847;DHT22;68671;50.084;8.794;2023-07-16T06:35:45;34.00;52.80
9847;DHT22;68671;50.084;8.794;2023-07-16T06:38:12;34.00;52.60
9847;DHT22;68671;50.084;8.794;2023-07-16T06:40:46;34.10;51.80
9847;DHT22;68671;50.084;8.794;2023-07-16T06:43:14;34.20;51.60
9847;DHT22;68671;50.084;8.794;2023-07-16T06:45:41;34.50;51.40
9847;DHT22;68671;50.084;8.794;2023-07-16T06:48:08;34.70;51.00
9847;DHT22;68671;50.084;8.794;2023-07-16T06:50:35;34.90;50.50
9847;DHT22;68671;50.084;8.794;2023-07-16T06:53:02;35.00;49.80
9847;DHT22;68671;50.084;8.794;2023-07-16T06:55:29;35.20;49.70
9847;DHT22;68671;50.084;8.794;2023-07-16T06:57:57;35.40;49.40
9847;DHT22;68671;50.084;8.794;2023-07-16T07:00:25;35.60;49.00
9847;DHT22;68671;50.084;8.794;2023-07-16T07:02:52;35.90;48.10
9847;DHT22;68671;50.084;8.794;2023-07-16T07:05:19;36.10;47.70
9847;DHT22;68671;50.084;8.794;2023-07-16T07:07:46;36.40;47.20
9847;DHT22;68671;50.084;8.794;2023-07-16T07:10:13;36.60;46.70
9847;DHT22;68671;50.084;8.794;2023-07-16T07:12:40;36.80;45.60
9847;DHT22;68671;50.084;8.794;2023-07-16T07:15:09;36.90;45.30
9847;DHT22;68671;50.084;8.794;2023-07-16T07:17:48;37.00;44.60
9847;DHT22;68671;50.084;8.794;2023-07-16T07:20:17;37.10;44.10
9847;DHT22;68671;50.084;8.794;2023-07-16T07:22:49;37.20;43.70
9847;DHT22;68671;50.084;8.794;2023-07-16T07:25:24;37.40;43.70
9847;DHT22;68671;50.084;8.794;2023-07-16T07:27:53;37.60;43.10
9847;DHT22;68671;50.084;8.794;2023-07-16T07:30:26;37.80;42.60
9847;DHT22;68671;50.084;8.794;2023-07-16T07:33:04;38.00;42.10
9847;DHT22;68671;50.084;8.794;2023-07-16T07:35:37;38.20;41.40
9847;DHT22;68671;50.084;8.794;2023-07-16T07:38:07;38.40;41.20
9847;DHT22;68671;50.084;8.794;2023-07-16T07:40:42;38.60;40.70
9847;DHT22;68671;50.084;8.794;2023-07-16T07:43:09;38.70;40.50
9847;DHT22;68671;50.084;8.794;2023-07-16T07:45:44;39.00;40.80
9847;DHT22;68671;50.084;8.794;2023-07-16T07:48:11;39.10;39.80
9847;DHT22;68671;50.084;8.794;2023-07-16T07:50:38;39.30;40.00
9847;DHT22;68671;50.084;8.794;2023-07-16T07:53:11;39.50;39.70
9847;DHT22;68671;50.084;8.794;2023-07-16T07:55:41;39.80;39.10
9847;DHT22;68671;50.084;8.794;2023-07-16T07:58:08;40.00;38.30
9847;DHT22;68671;50.084;8.794;2023-07-16T08:00:48;40.30;38.20
9847;DHT22;68671;50.084;8.794;2023-07-16T08:07:22;40.70;36.50
9847;DHT22;68671;50.084;8.794;2023-07-16T08:24:28;40.10;33.80
9847;DHT22;68671;50.084;8.794;2023-07-16T08:28:06;39.80;34.70
9847;DHT22;68671;50.084;8.794;2023-07-16T08:30:50;39.50;35.10
9847;DHT22;68671;50.084;8.794;2023-07-16T08:51:15;37.40;35.20
9847;DHT22;68671;50.084;8.794;2023-07-16T09:00:30;35.20;38.30
9847;DHT22;68671;50.084;8.794;2023-07-16T09:07:25;34.20;39.40
9847;DHT22;68671;50.084;8.794;2023-07-16T09:58:42;30.70;46.90
9847;DHT22;68671;50.084;8.794;2023-07-16T10:01:25;30.70;46.80
9847;DHT22;68671;50.084;8.794;2023-07-16T10:04:14;30.70;47.00
9847;DHT22;68671;50.084;8.794;2023-07-16T10:19:51;30.60;47.40
9847;DHT22;68671;50.084;8.794;2023-07-16T10:22:18;30.70;48.10
9847;DHT22;68671;50.084;8.794;2023-07-16T10:24:52;30.70;47.90
9847;DHT22;68671;50.084;8.794;2023-07-16T10:30:52;30.70;47.60
9847;DHT22;68671;50.084;8.794;2023-07-16T10:33:35;30.60;47.40
9847;DHT22;68671;50.084;8.794;2023-07-16T10:36:28;30.60;47.30
9847;DHT22;68671;50.084;8.794;2023-07-16T10:39:28;30.60;47.60
9847;DHT22;68671;50.084;8.794;2023-07-16T10:42:33;30.50;47.60
9847;DHT22;68671;50.084;8.794;2023-07-16T10:54:58;30.30;48.00
9847;DHT22;68671;50.084;8.794;2023-07-16T10:57:31;30.20;48.30
9847;DHT22;68671;50.084;8.794;2023-07-16T10:59:59;30.20;48.40
9847;DHT22;68671;50.084;8.794;2023-07-16T11:02:27;30.20;48.20
9847;DHT22;68671;50.084;8.794;2023-07-16T11:05:22;30.20;48.30
9847;DHT22;68671;50.084;8.794;2023-07-16T11:08:34;30.20;48.50
9847;DHT22;68671;50.084;8.794;2023-07-16T11:11:46;30.20;48.40
9847;DHT22;68671;50.084;8.794;2023-07-16T11:14:56;30.20;48.50
9847;DHT22;68671;50.084;8.794;2023-07-16T11:17:42;30.30;48.60
9847;DHT22;68671;50.084;8.794;2023-07-16T11:20:09;30.30;48.40
9847;DHT22;68671;50.084;8.794;2023-07-16T11:22:42;30.30;48.00
9847;DHT22;68671;50.084;8.794;2023-07-16T11:25:15;30.30;48.00
9847;DHT22;68671;50.084;8.794;2023-07-16T11:27:43;30.20;48.20
9847;DHT22;68671;50.084;8.794;2023-07-16T11:30:14;30.20;48.50
9847;DHT22;68671;50.084;8.794;2023-07-16T11:33:19;30.30;48.70
9847;DHT22;68671;50.084;8.794;2023-07-16T11:36:44;30.40;48.80
9847;DHT22;68671;50.084;8.794;2023-07-16T11:39:54;30.40;48.60
9847;DHT22;68671;50.084;8.794;2023-07-16T11:46:01;30.50;48.30
9847;DHT22;68671;50.084;8.794;2023-07-16T11:48:28;30.50;47.70
9847;DHT22;68671;50.084;8.794;2023-07-16T11:50:55;30.40;47.80
9847;DHT22;68671;50.084;8.794;2023-07-16T11:53:22;30.40;48.10
9847;DHT22;68671;50.084;8.794;2023-07-16T11:55:49;30.30;47.90
9847;DHT22;68671;50.084;8.794;2023-07-16T11:58:16;30.30;47.70
9847;DHT22;68671;50.084;8.794;2023-07-16T12:00:43;30.30;47.90
9847;DHT22;68671;50.084;8.794;2023-07-16T12:03:39;30.20;47.90
9847;DHT22;68671;50.084;8.794;2023-07-16T12:06:43;30.20;47.90
9847;DHT22;68671;50.084;8.794;2023-07-16T12:13:35;30.10;48.30
9847;DHT22;68671;50.084;8.794;2023-07-16T12:16:24;30.10;48.60
9847;DHT22;68671;50.084;8.794;2023-07-16T12:29:03;30.00;48.00
9847;DHT22;68671;50.084;8.794;2023-07-16T12:31:30;29.90;48.10
9847;DHT22;68671;50.084;8.794;2023-07-16T12:33:57;29.90;49.00
9847;DHT22;68671;50.084;8.794;2023-07-16T12:36:25;29.90;48.40
9847;DHT22;68671;50.084;8.794;2023-07-16T12:38:52;29.80;48.60
9847;DHT22;68671;50.084;8.794;2023-07-16T12:41:22;29.80;48.60
9847;DHT22;68671;50.084;8.794;2023-07-16T12:43:53;29.80;48.60
9847;DHT22;68671;50.084;8.794;2023-07-16T12:46:20;29.80;48.70
9847;DHT22;68671;50.084;8.794;2023-07-16T12:48:49;29.70;48.90
9847;DHT22;68671;50.084;8.794;2023-07-16T12:51:18;29.80;49.30
9847;DHT22;68671;50.084;8.794;2023-07-16T12:53:45;29.80;49.40
9847;DHT22;68671;50.084;8.794;2023-07-16T12:56:13;29.90;49.40
9847;DHT22;68671;50.084;8.794;2023-07-16T12:58:44;29.90;49.30
9847;DHT22;68671;50.084;8.794;2023-07-16T13:01:11;29.90;49.20
9847;DHT22;68671;50.084;8.794;2023-07-16T13:03:42;29.90;49.20
9847;DHT22;68671;50.084;8.794;2023-07-16T13:06:09;29.80;49.30
9847;DHT22;68671;50.084;8.794;2023-07-16T13:08:39;29.80;49.40
9847;DHT22;68671;50.084;8.794;2023-07-16T13:11:07;29.90;49.70
9847;DHT22;68671;50.084;8.794;2023-07-16T13:13:34;29.90;49.60
9847;DHT22;68671;50.084;8.794;2023-07-16T13:16:03;30.00;49.70
9847;DHT22;68671;50.084;8.794;2023-07-16T13:18:33;30.00;49.30
9847;DHT22;68671;50.084;8.794;2023-07-16T13:21:00;30.10;49.40
9847;DHT22;68671;50.084;8.794;2023-07-16T13:23:29;30.20;49.20
9847;DHT22;68671;50.084;8.794;2023-07-16T13:25:58;30.20;49.10
9847;DHT22;68671;50.084;8.794;2023-07-16T13:28:25;30.30;49.10
9847;DHT22;68671;50.084;8.794;2023-07-16T13:30:53;30.30;48.90
9847;DHT22;68671;50.084;8.794;2023-07-16T13:33:24;30.20;48.40
9847;DHT22;68671;50.084;8.794;2023-07-16T13:35:56;30.10;48.30
9847;DHT22;68671;50.084;8.794;2023-07-16T13:38:30;30.00;48.40
9847;DHT22;68671;50.084;8.794;2023-07-16T13:41:07;29.90;48.50
9847;DHT22;68671;50.084;8.794;2023-07-16T13:44:29;29.90;48.80
9847;DHT22;68671;50.084;8.794;2023-07-16T13:48:20;29.80;49.00
9847;DHT22;68671;50.084;8.794;2023-07-16T13:54:15;29.70;48.90
9847;DHT22;68671;50.084;8.794;2023-07-16T13:56:47;29.70;48.90
9847;DHT22;68671;50.084;8.794;2023-07-16T13:59:19;29.60;49.20
9847;DHT22;68671;50.084;8.794;2023-07-16T14:01:59;29.60;49.30
9847;DHT22;68671;50.084;8.794;2023-07-16T14:04:30;29.50;49.70
9847;DHT22;68671;50.084;8.794;2023-07-16T14:06:59;29.50;49.30
9847;DHT22;68671;50.084;8.794;2023-07-16T14:09:34;29.40;49.50
9847;DHT22;68671;50.084;8.794;2023-07-16T14:12:07;29.40;49.80
9847;DHT22;68671;50.084;8.794;2023-07-16T14:14:35;29.40;50.30
9847;DHT22;68671;50.084;8.794;2023-07-16T14:17:22;29.40;50.40
9847;DHT22;68671;50.084;8.794;2023-07-16T14:20:05;29.40;50.10
9847;DHT22;68671;50.084;8.794;2023-07-16T14:23:07;29.40;50.40
9847;DHT22;68671;50.084;8.794;2023-07-16T14:26:03;29.50;50.60
9847;DHT22;68671;50.084;8.794;2023-07-16T14:28:47;29.50;50.80
9847;DHT22;68671;50.084;8.794;2023-07-16T14:31:16;29.60;50.10
9847;DHT22;68671;50.084;8.794;2023-07-16T14:33:46;29.60;50.00
9847;DHT22;68671;50.084;8.794;2023-07-16T14:36:17;29.50;50.00
9847;DHT22;68671;50.084;8.794;2023-07-16T14:38:46;29.50;49.50
9847;DHT22;68671;50.084;8.794;2023-07-16T14:41:15;29.50;49.80
9847;DHT22;68671;50.084;8.794;2023-07-16T14:43:52;29.40;49.60
9847;DHT22;68671;50.084;8.794;2023-07-16T14:46:27;29.40;49.40
9847;DHT22;68671;50.084;8.794;2023-07-16T14:48:54;29.40;49.60
9847;DHT22;68671;50.084;8.794;2023-07-16T14:51:27;29.30;49.40
9847;DHT22;68671;50.084;8.794;2023-07-16T14:53:56;29.30;49.50
9847;DHT22;68671;50.084;8.794;2023-07-16T14:56:25;29.30;49.00
9847;DHT22;68671;50.084;8.794;2023-07-16T14:58:52;29.30;49.20
9847;DHT22;68671;50.084;8.794;2023-07-16T15:01:29;29.30;49.00
9847;DHT22;68671;50.084;8.794;2023-07-16T15:04:05;29.40;49.40
9847;DHT22;68671;50.084;8.794;2023-07-16T15:06:37;29.40;49.20
9847;DHT22;68671;50.084;8.794;2023-07-16T15:09:06;29.40;49.10
9847;DHT22;68671;50.084;8.794;2023-07-16T15:11:40;29.50;49.50
9847;DHT22;68671;50.084;8.794;2023-07-16T15:14:07;29.50;49.40
9847;DHT22;68671;50.084;8.794;2023-07-16T15:16:36;29.50;49.40
9847;DHT22;68671;50.084;8.794;2023-07-16T15:19:12;29.50;49.40
9847;DHT22;68671;50.084;8.794;2023-07-16T15:21:40;29.50;49.00
9847;DHT22;68671;50.084;8.794;2023-07-16T15:24:13;29.50;48.70
9847;DHT22;68671;50.084;8.794;2023-07-16T15:26:40;29.40;48.90
9847;DHT22;68671;50.084;8.794;2023-07-16T15:29:07;29.40;49.20
9847;DHT22;68671;50.084;8.794;2023-07-16T15:31:35;29.40;49.20
9847;DHT22;68671;50.084;8.794;2023-07-16T15:34:02;29.40;49.30
9847;DHT22;68671;50.084;8.794;2023-07-16T15:36:31;29.40;49.30
9847;DHT22;68671;50.084;8.794;2023-07-16T15:38:58;29.40;49.40
9847;DHT22;68671;50.084;8.794;2023-07-16T15:41:41;29.40;49.50
9847;DHT22;68671;50.084;8.794;2023-07-16T15:47:28;29.40;49.70
9847;DHT22;68671;50.084;8.794;2023-07-16T15:50:31;29.40;49.80
9847;DHT22;68671;50.084;8.794;2023-07-16T15:53:23;29.40;49.80
9847;DHT22;68671;50.084;8.794;2023-07-16T15:56:12;29.40;49.50
9847;DHT22;68671;50.084;8.794;2023-07-16T15:58:55;29.40;49.70
9847;DHT22;68671;50.084;8.794;2023-07-16T16:01:45;29.40;49.60
9847;DHT22;68671;50.084;8.794;2023-07-16T16:04:46;29.40;49.50
9847;DHT22;68671;50.084;8.794;2023-07-16T16:08:19;29.40;49.80
9847;DHT22;68671;50.084;8.794;2023-07-16T16:11:31;29.40;49.70
9847;DHT22;68671;50.084;8.794;2023-07-16T16:14:15;29.30;49.50
9847;DHT22;68671;50.084;8.794;2023-07-16T16:16:44;29.20;48.90
9847;DHT22;68671;50.084;8.794;2023-07-16T16:19:11;29.10;48.90
9847;DHT22;68671;50.084;8.794;2023-07-16T16:21:38;29.00;49.40
9847;DHT22;68671;50.084;8.794;2023-07-16T16:24:06;29.00;49.50
9847;DHT22;68671;50.084;8.794;2023-07-16T16:26:33;28.90;49.60
9847;DHT22;68671;50.084;8.794;2023-07-16T16:29:03;28.90;49.70
9847;DHT22;68671;50.084;8.794;2023-07-16T16:31:32;28.90;49.20
9847;DHT22;68671;50.084;8.794;2023-07-16T16:45:54;28.50;50.80
9847;DHT22;68671;50.084;8.794;2023-07-16T16:48:49;28.60;51.40
9847;DHT22;68671;50.084;8.794;2023-07-16T16:51:31;28.60;51.40
9847;DHT22;68671;50.084;8.794;2023-07-16T16:54:16;28.50;51.10
9847;DHT22;68671;50.084;8.794;2023-07-16T16:57:31;28.50;51.10
9847;DHT22;68671;50.084;8.794;2023-07-16T17:00:05;28.50;51.50
9847;DHT22;68671;50.084;8.794;2023-07-16T17:03:08;28.50;51.20
9847;DHT22;68671;50.084;8.794;2023-07-16T17:05:42;28.50;51.60
9847;DHT22;68671;50.084;8.794;2023-07-16T17:08:09;28.40;51.90
9847;DHT22;68671;50.084;8.794;2023-07-16T17:10:36;28.40;52.60
9847;DHT22;68671;50.084;8.794;2023-07-16T17:13:03;28.40;52.50
9847;DHT22;68671;50.084;8.794;2023-07-16T17:15:30;28.50;52.30
9847;DHT22;68671;50.084;8.794;2023-07-16T17:17:57;28.50;52.90
9847;DHT22;68671;50.084;8.794;2023-07-16T17:20:25;28.50;53.00
9847;DHT22;68671;50.084;8.794;2023-07-16T17:22:53;28.50;52.60
9847;DHT22;68671;50.084;8.794;2023-07-16T17:25:21;28.50;53.60
9847;DHT22;68671;50.084;8.794;2023-07-16T17:27:48;28.50;53.50
9847;DHT22;68671;50.084;8.794;2023-07-16T17:30:15;28.50;53.40
9847;DHT22;68671;50.084;8.794;2023-07-16T17:32:42;28.50;53.80
9847;DHT22;68671;50.084;8.794;2023-07-16T17:35:09;28.50;53.50
9847;DHT22;68671;50.084;8.794;2023-07-16T17:37:36;28.50;53.50
9847;DHT22;68671;50.084;8.794;2023-07-16T17:40:06;28.50;52.90
9847;DHT22;68671;50.084;8.794;2023-07-16T17:42:34;28.50;52.90
9847;DHT22;68671;50.084;8.794;2023-07-16T17:45:15;28.50;52.50
9847;DHT22;68671;50.084;8.794;2023-07-16T17:50:33;28.40;52.40
9847;DHT22;68671;50.084;8.794;2023-07-16T17:53:05;28.30;52.50
9847;DHT22;68671;50.084;8.794;2023-07-16T17:55:50;28.30;52.10
9847;DHT22;68671;50.084;8.794;2023-07-16T17:58:45;28.30;52.20
9847;DHT22;68671;50.084;8.794;2023-07-16T18:01:12;28.20;52.10
9847;DHT22;68671;50.084;8.794;2023-07-16T18:03:41;28.20;52.00
9847;DHT22;68671;50.084;8.794;2023-07-16T18:06:14;28.10;52.20
9847;DHT22;68671;50.084;8.794;2023-07-16T18:08:49;28.10;52.00
9847;DHT22;68671;50.084;8.794;2023-07-16T18:11:18;28.00;51.70
9847;DHT22;68671;50.084;8.794;2023-07-16T18:13:47;28.00;51.20
9847;DHT22;68671;50.084;8.794;2023-07-16T18:16:14;28.00;51.50
9847;DHT22;68671;50.084;8.794;2023-07-16T18:18:44;27.90;51.40
9847;DHT22;68671;50.084;8.794;2023-07-16T18:21:11;27.80;51.70
9847;DHT22;68671;50.084;8.794;2023-07-16T18:23:38;27.80;52.10
9847;DHT22;68671;50.084;8.794;2023-07-16T18:26:05;27.80;52.20
9847;DHT22;68671;50.084;8.794;2023-07-16T18:28:36;27.80;52.00
9847;DHT22;68671;50.084;8.794;2023-07-16T18:31:03;27.80;52.20
9847;DHT22;68671;50.084;8.794;2023-07-16T18:33:31;27.80;52.60
9847;DHT22;68671;50.084;8.794;2023-07-16T18:35:58;27.70;52.50
9847;DHT22;68671;50.084;8.794;2023-07-16T18:38:27;27.70;52.40
9847;DHT22;68671;50.084;8.794;2023-07-16T18:40:54;27.70;52.40
9847;DHT22;68671;50.084;8.794;2023-07-16T18:43:21;27.60;52.80
9847;DHT22;68671;50.084;8.794;2023-07-16T18:45:50;27.60;52.90
9847;DHT22;68671;50.084;8.794;2023-07-16T18:48:17;27.60;53.00
9847;DHT22;68671;50.084;8.794;2023-07-16T18:50:44;27.60;52.90
9847;DHT22;68671;50.084;8.794;2023-07-16T18:53:11;27.60;52.90
9847;DHT22;68671;50.084;8.794;2023-07-16T18:55:38;27.50;53.00
9847;DHT22;68671;50.084;8.794;2023-07-16T18:58:10;27.40;53.30
9847;DHT22;68671;50.084;8.794;2023-07-16T19:00:40;27.50;53.30
9847;DHT22;68671;50.084;8.794;2023-07-16T19:03:09;27.50;53.20
9847;DHT22;68671;50.084;8.794;2023-07-16T19:05:36;27.40;53.10
9847;DHT22;68671;50.084;8.794;2023-07-16T19:08:03;27.40;53.20
9847;DHT22;68671;50.084;8.794;2023-07-16T19:10:31;27.40;53.50
9847;DHT22;68671;50.084;8.794;2023-07-16T19:13:03;27.30;53.90
9847;DHT22;68671;50.084;8.794;2023-07-16T19:15:31;27.20;53.60